sensor_id;sensor_type;location;lat;lon;timestamp;P1;durP1;ratioP1;P2;durP2;ratioP2
60169;SDS011;46042;49.444;6.862;2023-01-19T00:00:51;12.90;;;6.17;;
60169;SDS011;46042;49.444;6.862;2023-01-19T00:03:17;12.53;;;6.20;;
60169;SDS011;46042;49.444;6.862;2023-01-19T00:05:44;14.70;;;8.53;;
60169;SDS011;46042;49.444;6.862;2023-01-19T00:08:11;18.30;;;8.93;;
60169;SDS011;46042;49.444;6.862;2023-01-19T00:10:45;16.50;;;9.60;;
60169;SDS011;46042;49.444;6.862;2023-01-19T00:13:16;10.03;;;6.20;;
60169;SDS011;46042;49.444;6.862;2023-01-19T00:15:43;10.73;;;6.37;;
60169;SDS011;46042;49.444;6.862;2023-01-19T00:18:09;11.57;;;5.73;;
60169;SDS011;46042;49.444;6.862;2023-01-19T00:20:37;12.40;;;5.67;;
60169;SDS011;46042;49.444;6.862;2023-01-19T00:23:06;15.63;;;5.82;;
60169;SDS011;46042;49.444;6.862;2023-01-19T00:25:34;11.33;;;5.37;;
60169;SDS011;46042;49.444;6.862;2023-01-19T00:28:01;11.27;;;5.90;;
60169;SDS011;46042;49.444;6.862;2023-01-19T00:30:27;12.53;;;5.57;;
60169;SDS011;46042;49.444;6.862;2023-01-19T00:32:54;6.40;;;4.47;;
60169;SDS011;46042;49.444;6.862;2023-01-19T00:35:21;9.63;;;5.30;;
60169;SDS011;46042;49.444;6.862;2023-01-19T00:37:48;8.87;;;4.77;;
60169;SDS011;46042;49.444;6.862;2023-01-19T00:40:15;7.63;;;4.90;;
60169;SDS011;46042;49.444;6.862;2023-01-19T00:42:41;9.63;;;5.90;;
60169;SDS011;46042;49.444;6.862;2023-01-19T00:45:15;8.53;;;5.07;;
60169;SDS011;46042;49.444;6.862;2023-01-19T00:47:46;11.20;;;6.07;;
60169;SDS011;46042;49.444;6.862;2023-01-19T00:50:14;9.70;;;5.50;;
60169;SDS011;46042;49.444;6.862;2023-01-19T00:52:42;11.20;;;6.07;;
60169;SDS011;46042;49.444;6.862;2023-01-19T00:55:10;13.53;;;5.43;;
60169;SDS011;46042;49.444;6.862;2023-01-19T00:57:38;11.03;;;6.77;;
60169;SDS011;46042;49.444;6.862;2023-01-19T01:00:06;11.03;;;5.60;;
60169;SDS011;46042;49.444;6.862;2023-01-19T01:02:37;14.43;;;6.30;;
60169;SDS011;46042;49.444;6.862;2023-01-19T01:05:05;12.57;;;5.67;;
60169;SDS011;46042;49.444;6.862;2023-01-19T01:07:33;12.10;;;6.43;;
60169;SDS011;46042;49.444;6.862;2023-01-19T01:12:35;11.87;;;5.77;;
60169;SDS011;46042;49.444;6.862;2023-01-19T01:15:02;15.80;;;6.17;;
60169;SDS011;46042;49.444;6.862;2023-01-19T01:17:34;14.40;;;5.97;;
60169;SDS011;46042;49.444;6.862;2023-01-19T01:20:01;8.60;;;5.60;;
60169;SDS011;46042;49.444;6.862;2023-01-19T01:22:30;14.53;;;6.57;;
60169;SDS011;46042;49.444;6.862;2023-01-19T01:24:57;14.30;;;6.97;;
60169;SDS011;46042;49.444;6.862;2023-01-19T01:27:23;10.50;;;5.70;;
60169;SDS011;46042;49.444;6.862;2023-01-19T01:29:50;17.00;;;6.30;;
60169;SDS011;46042;49.444;6.862;2023-01-19T01:32:16;12.67;;;6.73;;
60169;SDS011;46042;49.444;6.862;2023-01-19T01:34:43;14.23;;;7.00;;
60169;SDS011;46042;49.444;6.862;2023-01-19T01:37:09;12.63;;;6.10;;
60169;SDS011;46042;49.444;6.862;2023-01-19T01:39:36;14.67;;;6.30;;
60169;SDS011;46042;49.444;6.862;2023-01-19T01:42:07;9.60;;;5.07;;
60169;SDS011;46042;49.444;6.862;2023-01-19T01:47:22;9.23;;;5.47;;
60169;SDS011;46042;49.444;6.862;2023-01-19T01:50:08;16.03;;;4.53;;
60169;SDS011;46042;49.444;6.862;2023-01-19T01:52:51;7.20;;;4.50;;
60169;SDS011;46042;49.444;6.862;2023-01-19T01:55:33;9.30;;;5.07;;
60169;SDS011;46042;49.444;6.862;2023-01-19T01:58:05;12.30;;;4.97;;
60169;SDS011;46042;49.444;6.862;2023-01-19T02:00:33;7.67;;;4.60;;
60169;SDS011;46042;49.444;6.862;2023-01-19T02:03:20;9.43;;;5.23;;
60169;SDS011;46042;49.444;6.862;2023-01-19T02:05:49;11.97;;;5.17;;
60169;SDS011;46042;49.444;6.862;2023-01-19T02:08:40;7.63;;;4.80;;
60169;SDS011;46042;49.444;6.862;2023-01-19T02:11:46;7.13;;;4.27;;
60169;SDS011;46042;49.444;6.862;2023-01-19T02:14:31;11.90;;;4.13;;
60169;SDS011;46042;49.444;6.862;2023-01-19T02:19:30;10.30;;;5.40;;
60169;SDS011;46042;49.444;6.862;2023-01-19T02:22:04;7.50;;;4.60;;
60169;SDS011;46042;49.444;6.862;2023-01-19T02:24:39;11.13;;;5.80;;
60169;SDS011;46042;49.444;6.862;2023-01-19T02:27:06;10.27;;;5.27;;
60169;SDS011;46042;49.444;6.862;2023-01-19T02:29:34;11.67;;;5.80;;
60169;SDS011;46042;49.444;6.862;2023-01-19T02:32:00;9.57;;;5.10;;
60169;SDS011;46042;49.444;6.862;2023-01-19T02:34:28;16.87;;;4.93;;
60169;SDS011;46042;49.444;6.862;2023-01-19T02:36:55;14.10;;;5.00;;
60169;SDS011;46042;49.444;6.862;2023-01-19T02:39:30;8.47;;;4.77;;
60169;SDS011;46042;49.444;6.862;2023-01-19T02:42:02;10.20;;;4.23;;
60169;SDS011;46042;49.444;6.862;2023-01-19T02:44:31;9.13;;;5.25;;
60169;SDS011;46042;49.444;6.862;2023-01-19T02:47:00;6.83;;;4.23;;
60169;SDS011;46042;49.444;6.862;2023-01-19T02:49:27;12.33;;;5.00;;
60169;SDS011;46042;49.444;6.862;2023-01-19T02:51:57;9.30;;;5.40;;
60169;SDS011;46042;49.444;6.862;2023-01-19T03:05:52;10.13;;;5.57;;
60169;SDS011;46042;49.444;6.862;2023-01-19T03:08:47;9.17;;;5.80;;
60169;SDS011;46042;49.444;6.862;2023-01-19T03:11:19;7.87;;;5.47;;
60169;SDS011;46042;49.444;6.862;2023-01-19T03:13:55;12.90;;;6.37;;
60169;SDS011;46042;49.444;6.862;2023-01-19T03:19:31;11.90;;;5.40;;
60169;SDS011;46042;49.444;6.862;2023-01-19T03:22:09;10.50;;;5.33;;
60169;SDS011;46042;49.444;6.862;2023-01-19T03:24:41;9.90;;;4.97;;
60169;SDS011;46042;49.444;6.862;2023-01-19T03:27:13;9.33;;;4.60;;
60169;SDS011;46042;49.444;6.862;2023-01-19T03:29:47;8.33;;;4.97;;
60169;SDS011;46042;49.444;6.862;2023-01-19T03:34:46;11.10;;;4.60;;
60169;SDS011;46042;49.444;6.862;2023-01-19T03:37:15;9.30;;;5.30;;
60169;SDS011;46042;49.444;6.862;2023-01-19T03:39:44;7.60;;;4.90;;
60169;SDS011;46042;49.444;6.862;2023-01-19T03:42:12;8.67;;;5.67;;
60169;SDS011;46042;49.444;6.862;2023-01-19T03:44:41;10.57;;;5.33;;
60169;SDS011;46042;49.444;6.862;2023-01-19T03:47:10;10.53;;;5.17;;
60169;SDS011;46042;49.444;6.862;2023-01-19T03:49:40;18.47;;;5.87;;
60169;SDS011;46042;49.444;6.862;2023-01-19T03:52:09;10.80;;;5.30;;
60169;SDS011;46042;49.444;6.862;2023-01-19T03:54:37;14.50;;;5.07;;
60169;SDS011;46042;49.444;6.862;2023-01-19T03:57:06;10.93;;;5.67;;
60169;SDS011;46042;49.444;6.862;2023-01-19T03:59:32;9.07;;;5.13;;
60169;SDS011;46042;49.444;6.862;2023-01-19T04:01:59;12.70;;;6.37;;
60169;SDS011;46042;49.444;6.862;2023-01-19T04:04:26;19.03;;;6.57;;
60169;SDS011;46042;49.444;6.862;2023-01-19T04:06:53;9.13;;;5.50;;
60169;SDS011;46042;49.444;6.862;2023-01-19T04:09:20;9.70;;;5.47;;
60169;SDS011;46042;49.444;6.862;2023-01-19T04:11:46;9.10;;;4.97;;
60169;SDS011;46042;49.444;6.862;2023-01-19T04:14:13;10.50;;;5.60;;
60169;SDS011;46042;49.444;6.862;2023-01-19T04:16:39;8.20;;;5.20;;
60169;SDS011;46042;49.444;6.862;2023-01-19T04:19:06;11.70;;;5.37;;
60169;SDS011;46042;49.444;6.862;2023-01-19T04:21:33;11.37;;;5.87;;
60169;SDS011;46042;49.444;6.862;2023-01-19T04:24:00;10.67;;;4.60;;
60169;SDS011;46042;49.444;6.862;2023-01-19T04:26:26;8.27;;;5.27;;
60169;SDS011;46042;49.444;6.862;2023-01-19T04:28:53;11.77;;;5.27;;
60169;SDS011;46042;49.444;6.862;2023-01-19T04:31:20;12.57;;;5.47;;
60169;SDS011;46042;49.444;6.862;2023-01-19T04:33:47;15.10;;;4.87;;
60169;SDS011;46042;49.444;6.862;2023-01-19T04:36:14;8.07;;;5.10;;
60169;SDS011;46042;49.444;6.862;2023-01-19T04:38:41;9.23;;;5.47;;
60169;SDS011;46042;49.444;6.862;2023-01-19T04:41:08;11.20;;;6.40;;
60169;SDS011;46042;49.444;6.862;2023-01-19T04:43:35;9.97;;;5.67;;
60169;SDS011;46042;49.444;6.862;2023-01-19T04:46:01;14.13;;;6.03;;
60169;SDS011;46042;49.444;6.862;2023-01-19T04:48:28;10.60;;;6.27;;
60169;SDS011;46042;49.444;6.862;2023-01-19T04:50:55;14.13;;;6.47;;
60169;SDS011;46042;49.444;6.862;2023-01-19T04:53:21;15.50;;;8.00;;
60169;SDS011;46042;49.444;6.862;2023-01-19T04:55:51;15.83;;;7.93;;
60169;SDS011;46042;49.444;6.862;2023-01-19T04:58:20;11.70;;;7.57;;
60169;SDS011;46042;49.444;6.862;2023-01-19T05:00:46;13.80;;;6.80;;
60169;SDS011;46042;49.444;6.862;2023-01-19T05:03:13;15.73;;;5.93;;
60169;SDS011;46042;49.444;6.862;2023-01-19T05:05:40;9.90;;;5.33;;
60169;SDS011;46042;49.444;6.862;2023-01-19T05:08:06;10.47;;;5.50;;
60169;SDS011;46042;49.444;6.862;2023-01-19T05:10:33;12.37;;;6.23;;
60169;SDS011;46042;49.444;6.862;2023-01-19T05:13:01;8.90;;;5.40;;
60169;SDS011;46042;49.444;6.862;2023-01-19T05:15:30;10.27;;;5.13;;
60169;SDS011;46042;49.444;6.862;2023-01-19T05:17:57;9.97;;;5.73;;
60169;SDS011;46042;49.444;6.862;2023-01-19T05:20:23;13.17;;;5.43;;
60169;SDS011;46042;49.444;6.862;2023-01-19T05:22:51;8.67;;;4.90;;
60169;SDS011;46042;49.444;6.862;2023-01-19T05:25:18;10.07;;;5.17;;
60169;SDS011;46042;49.444;6.862;2023-01-19T05:27:45;16.43;;;7.43;;
60169;SDS011;46042;49.444;6.862;2023-01-19T05:30:12;13.53;;;6.63;;
60169;SDS011;46042;49.444;6.862;2023-01-19T05:32:39;16.57;;;6.50;;
60169;SDS011;46042;49.444;6.862;2023-01-19T05:35:06;11.30;;;5.93;;
60169;SDS011;46042;49.444;6.862;2023-01-19T05:37:33;12.53;;;6.87;;
60169;SDS011;46042;49.444;6.862;2023-01-19T05:40:00;11.70;;;5.77;;
60169;SDS011;46042;49.444;6.862;2023-01-19T05:42:26;11.30;;;6.60;;
60169;SDS011;46042;49.444;6.862;2023-01-19T05:44:53;7.43;;;5.07;;
60169;SDS011;46042;49.444;6.862;2023-01-19T05:47:19;11.03;;;5.97;;
60169;SDS011;46042;49.444;6.862;2023-01-19T05:49:46;9.07;;;5.10;;
60169;SDS011;46042;49.444;6.862;2023-01-19T05:52:13;9.83;;;6.03;;
60169;SDS011;46042;49.444;6.862;2023-01-19T05:54:40;14.47;;;6.90;;
60169;SDS011;46042;49.444;6.862;2023-01-19T05:57:06;18.63;;;7.73;;
60169;SDS011;46042;49.444;6.862;2023-01-19T05:59:33;12.77;;;5.97;;
60169;SDS011;46042;49.444;6.862;2023-01-19T06:02:00;10.23;;;6.03;;
60169;SDS011;46042;49.444;6.862;2023-01-19T06:04:27;10.87;;;5.37;;
60169;SDS011;46042;49.444;6.862;2023-01-19T06:06:53;9.83;;;6.07;;
60169;SDS011;46042;49.444;6.862;2023-01-19T06:09:20;12.30;;;6.40;;
60169;SDS011;46042;49.444;6.862;2023-01-19T06:11:46;12.30;;;5.63;;
60169;SDS011;46042;49.444;6.862;2023-01-19T06:14:13;9.17;;;5.43;;
60169;SDS011;46042;49.444;6.862;2023-01-19T06:16:40;13.40;;;6.63;;
60169;SDS011;46042;49.444;6.862;2023-01-19T06:19:07;10.53;;;5.57;;
60169;SDS011;46042;49.444;6.862;2023-01-19T06:21:33;16.23;;;8.27;;
60169;SDS011;46042;49.444;6.862;2023-01-19T06:24:00;14.90;;;7.60;;
60169;SDS011;46042;49.444;6.862;2023-01-19T06:26:26;17.40;;;8.10;;
60169;SDS011;46042;49.444;6.862;2023-01-19T06:28:53;14.27;;;6.63;;
60169;SDS011;46042;49.444;6.862;2023-01-19T06:31:20;16.13;;;6.00;;
60169;SDS011;46042;49.444;6.862;2023-01-19T06:33:47;12.47;;;6.80;;
60169;SDS011;46042;49.444;6.862;2023-01-19T06:36:13;13.07;;;6.10;;
60169;SDS011;46042;49.444;6.862;2023-01-19T06:38:40;9.93;;;5.27;;
60169;SDS011;46042;49.444;6.862;2023-01-19T06:41:06;10.23;;;5.80;;
60169;SDS011;46042;49.444;6.862;2023-01-19T06:43:33;11.03;;;7.13;;
60169;SDS011;46042;49.444;6.862;2023-01-19T06:46:00;12.17;;;6.43;;
60169;SDS011;46042;49.444;6.862;2023-01-19T06:48:27;11.10;;;6.80;;
60169;SDS011;46042;49.444;6.862;2023-01-19T06:50:54;13.90;;;8.40;;
60169;SDS011;46042;49.444;6.862;2023-01-19T06:53:23;9.90;;;6.20;;
60169;SDS011;46042;49.444;6.862;2023-01-19T06:55:52;11.23;;;7.47;;
60169;SDS011;46042;49.444;6.862;2023-01-19T06:58:20;10.63;;;6.17;;
60169;SDS011;46042;49.444;6.862;2023-01-19T07:00:46;11.47;;;5.70;;
60169;SDS011;46042;49.444;6.862;2023-01-19T07:03:18;16.65;;;6.28;;
60169;SDS011;46042;49.444;6.862;2023-01-19T07:05:49;13.27;;;6.90;;
60169;SDS011;46042;49.444;6.862;2023-01-19T07:08:16;12.70;;;6.50;;
60169;SDS011;46042;49.444;6.862;2023-01-19T07:10:43;11.77;;;5.60;;
60169;SDS011;46042;49.444;6.862;2023-01-19T07:13:30;11.30;;;6.17;;
60169;SDS011;46042;49.444;6.862;2023-01-19T07:15:57;10.20;;;5.27;;
60169;SDS011;46042;49.444;6.862;2023-01-19T07:18:24;10.83;;;6.20;;
60169;SDS011;46042;49.444;6.862;2023-01-19T07:20:50;11.17;;;6.50;;
60169;SDS011;46042;49.444;6.862;2023-01-19T07:23:17;9.27;;;5.23;;
60169;SDS011;46042;49.444;6.862;2023-01-19T07:25:44;11.67;;;6.03;;
60169;SDS011;46042;49.444;6.862;2023-01-19T07:28:11;12.17;;;6.47;;
60169;SDS011;46042;49.444;6.862;2023-01-19T07:30:43;7.87;;;5.07;;
60169;SDS011;46042;49.444;6.862;2023-01-19T07:33:11;9.05;;;6.03;;
60169;SDS011;46042;49.444;6.862;2023-01-19T07:35:38;17.77;;;5.97;;
60169;SDS011;46042;49.444;6.862;2023-01-19T07:38:05;14.53;;;7.13;;
60169;SDS011;46042;49.444;6.862;2023-01-19T07:40:31;11.97;;;6.53;;
60169;SDS011;46042;49.444;6.862;2023-01-19T07:42:58;8.77;;;5.37;;
60169;SDS011;46042;49.444;6.862;2023-01-19T07:45:25;10.03;;;5.23;;
60169;SDS011;46042;49.444;6.862;2023-01-19T07:47:53;15.77;;;6.40;;
60169;SDS011;46042;49.444;6.862;2023-01-19T07:50:20;14.80;;;7.13;;
60169;SDS011;46042;49.444;6.862;2023-01-19T07:52:50;18.17;;;6.97;;
60169;SDS011;46042;49.444;6.862;2023-01-19T07:55:19;78.83;;;12.53;;
60169;SDS011;46042;49.444;6.862;2023-01-19T07:57:49;48.63;;;8.63;;
60169;SDS011;46042;49.444;6.862;2023-01-19T08:00:17;11.75;;;6.15;;
60169;SDS011;46042;49.444;6.862;2023-01-19T08:02:47;26.63;;;6.57;;
60169;SDS011;46042;49.444;6.862;2023-01-19T08:05:17;17.37;;;6.23;;
60169;SDS011;46042;49.444;6.862;2023-01-19T08:07:45;11.00;;;6.53;;
60169;SDS011;46042;49.444;6.862;2023-01-19T08:10:12;9.47;;;6.10;;
60169;SDS011;46042;49.444;6.862;2023-01-19T08:12:42;14.77;;;7.57;;
60169;SDS011;46042;49.444;6.862;2023-01-19T08:15:09;12.97;;;7.33;;
60169;SDS011;46042;49.444;6.862;2023-01-19T08:17:37;15.30;;;7.23;;
60169;SDS011;46042;49.444;6.862;2023-01-19T08:20:04;12.73;;;6.50;;
60169;SDS011;46042;49.444;6.862;2023-01-19T08:22:31;10.53;;;6.40;;
60169;SDS011;46042;49.444;6.862;2023-01-19T08:24:58;10.97;;;6.17;;
60169;SDS011;46042;49.444;6.862;2023-01-19T08:27:25;12.13;;;6.63;;
60169;SDS011;46042;49.444;6.862;2023-01-19T08:29:51;9.93;;;6.07;;
60169;SDS011;46042;49.444;6.862;2023-01-19T08:32:19;10.63;;;6.50;;
60169;SDS011;46042;49.444;6.862;2023-01-19T08:34:46;10.53;;;5.70;;
60169;SDS011;46042;49.444;6.862;2023-01-19T08:37:12;10.87;;;6.27;;
60169;SDS011;46042;49.444;6.862;2023-01-19T08:39:39;11.47;;;6.53;;
60169;SDS011;46042;49.444;6.862;2023-01-19T08:42:06;14.17;;;6.27;;
60169;SDS011;46042;49.444;6.862;2023-01-19T08:44:32;9.43;;;5.93;;
60169;SDS011;46042;49.444;6.862;2023-01-19T08:46:59;12.17;;;5.67;;
60169;SDS011;46042;49.444;6.862;2023-01-19T08:49:25;8.97;;;5.27;;
60169;SDS011;46042;49.444;6.862;2023-01-19T08:51:52;20.83;;;6.77;;
60169;SDS011;46042;49.444;6.862;2023-01-19T08:54:18;8.70;;;5.37;;
60169;SDS011;46042;49.444;6.862;2023-01-19T08:56:46;10.00;;;5.73;;
60169;SDS011;46042;49.444;6.862;2023-01-19T08:59:13;10.83;;;6.37;;
60169;SDS011;46042;49.444;6.862;2023-01-19T09:01:40;11.70;;;5.60;;
60169;SDS011;46042;49.444;6.862;2023-01-19T09:04:07;12.17;;;7.07;;
60169;SDS011;46042;49.444;6.862;2023-01-19T09:06:33;12.00;;;6.93;;
60169;SDS011;46042;49.444;6.862;2023-01-19T09:09:00;15.87;;;7.03;;
60169;SDS011;46042;49.444;6.862;2023-01-19T09:11:26;14.60;;;8.00;;
60169;SDS011;46042;49.444;6.862;2023-01-19T09:13:53;13.87;;;6.67;;
60169;SDS011;46042;49.444;6.862;2023-01-19T09:16:20;7.40;;;4.67;;
60169;SDS011;46042;49.444;6.862;2023-01-19T09:18:47;11.63;;;5.80;;
60169;SDS011;46042;49.444;6.862;2023-01-19T09:21:13;19.50;;;8.40;;
60169;SDS011;46042;49.444;6.862;2023-01-19T09:23:40;24.17;;;10.20;;
60169;SDS011;46042;49.444;6.862;2023-01-19T09:26:07;18.37;;;8.83;;
60169;SDS011;46042;49.444;6.862;2023-01-19T09:28:35;26.50;;;11.90;;
60169;SDS011;46042;49.444;6.862;2023-01-19T09:31:03;15.37;;;8.13;;
60169;SDS011;46042;49.444;6.862;2023-01-19T09:33:32;35.77;;;10.57;;
60169;SDS011;46042;49.444;6.862;2023-01-19T09:35:59;11.07;;;6.00;;
60169;SDS011;46042;49.444;6.862;2023-01-19T09:38:27;10.70;;;6.17;;
60169;SDS011;46042;49.444;6.862;2023-01-19T09:40:57;24.10;;;7.37;;
60169;SDS011;46042;49.444;6.862;2023-01-19T09:45:57;10.67;;;5.27;;
60169;SDS011;46042;49.444;6.862;2023-01-19T09:48:29;12.25;;;6.03;;
60169;SDS011;46042;49.444;6.862;2023-01-19T09:51:21;7.90;;;4.33;;
60169;SDS011;46042;49.444;6.862;2023-01-19T09:56:38;8.77;;;4.80;;
60169;SDS011;46042;49.444;6.862;2023-01-19T09:59:14;8.50;;;5.07;;
60169;SDS011;46042;49.444;6.862;2023-01-19T10:15:57;7.97;;;4.30;;
60169;SDS011;46042;49.444;6.862;2023-01-19T10:18:51;7.00;;;4.00;;
60169;SDS011;46042;49.444;6.862;2023-01-19T10:21:25;13.53;;;4.30;;
60169;SDS011;46042;49.444;6.862;2023-01-19T10:26:46;10.83;;;5.17;;
60169;SDS011;46042;49.444;6.862;2023-01-19T10:31:51;9.27;;;4.47;;
60169;SDS011;46042;49.444;6.862;2023-01-19T10:34:26;9.33;;;4.00;;
60169;SDS011;46042;49.444;6.862;2023-01-19T10:36:55;6.00;;;3.57;;
60169;SDS011;46042;49.444;6.862;2023-01-19T10:39:27;15.20;;;3.93;;
60169;SDS011;46042;49.444;6.862;2023-01-19T10:41:54;10.00;;;5.40;;
60169;SDS011;46042;49.444;6.862;2023-01-19T10:44:26;9.73;;;4.93;;
60169;SDS011;46042;49.444;6.862;2023-01-19T10:46:59;6.33;;;3.83;;
60169;SDS011;46042;49.444;6.862;2023-01-19T10:49:28;7.83;;;4.17;;
60169;SDS011;46042;49.444;6.862;2023-01-19T10:52:05;7.03;;;3.93;;
60169;SDS011;46042;49.444;6.862;2023-01-19T10:54:35;6.80;;;4.03;;
60169;SDS011;46042;49.444;6.862;2023-01-19T10:57:11;8.83;;;3.70;;
60169;SDS011;46042;49.444;6.862;2023-01-19T10:59:49;15.13;;;4.13;;
60169;SDS011;46042;49.444;6.862;2023-01-19T11:02:20;9.83;;;5.10;;
60169;SDS011;46042;49.444;6.862;2023-01-19T11:04:55;6.20;;;3.87;;
60169;SDS011;46042;49.444;6.862;2023-01-19T11:10:36;7.50;;;4.00;;
60169;SDS011;46042;49.444;6.862;2023-01-19T11:12:41;6.20;;;3.70;;
60169;SDS011;46042;49.444;6.862;2023-01-19T11:15:23;8.23;;;4.40;;
60169;SDS011;46042;49.444;6.862;2023-01-19T11:17:53;9.63;;;4.13;;
60169;SDS011;46042;49.444;6.862;2023-01-19T11:20:21;5.78;;;4.00;;
60169;SDS011;46042;49.444;6.862;2023-01-19T11:23:14;10.20;;;3.92;;
60169;SDS011;46042;49.444;6.862;2023-01-19T11:25:58;7.32;;;4.13;;
60169;SDS011;46042;49.444;6.862;2023-01-19T11:28:33;10.93;;;4.20;;
60169;SDS011;46042;49.444;6.862;2023-01-19T11:33:51;8.13;;;3.70;;
60169;SDS011;46042;49.444;6.862;2023-01-19T11:36:20;10.23;;;4.50;;
60169;SDS011;46042;49.444;6.862;2023-01-19T11:38:49;15.30;;;4.77;;
60169;SDS011;46042;49.444;6.862;2023-01-19T11:41:28;9.70;;;5.73;;
60169;SDS011;46042;49.444;6.862;2023-01-19T11:43:57;6.97;;;4.07;;
60169;SDS011;46042;49.444;6.862;2023-01-19T11:46:34;9.40;;;5.00;;
60169;SDS011;46042;49.444;6.862;2023-01-19T11:49:06;6.50;;;4.32;;
60169;SDS011;46042;49.444;6.862;2023-01-19T11:52:01;7.67;;;5.07;;
60169;SDS011;46042;49.444;6.862;2023-01-19T11:54:34;11.87;;;6.60;;
60169;SDS011;46042;49.444;6.862;2023-01-19T11:57:09;9.30;;;5.50;;
60169;SDS011;46042;49.444;6.862;2023-01-19T11:59:43;9.13;;;4.87;;
60169;SDS011;46042;49.444;6.862;2023-01-19T12:02:13;11.17;;;5.07;;
60169;SDS011;46042;49.444;6.862;2023-01-19T12:04:48;9.37;;;4.47;;
60169;SDS011;46042;49.444;6.862;2023-01-19T12:07:18;12.13;;;5.27;;
60169;SDS011;46042;49.444;6.862;2023-01-19T12:09:52;14.00;;;5.53;;
60169;SDS011;46042;49.444;6.862;2023-01-19T12:12:31;8.07;;;4.53;;
60169;SDS011;46042;49.444;6.862;2023-01-19T12:17:42;7.33;;;4.33;;
60169;SDS011;46042;49.444;6.862;2023-01-19T12:20:16;9.20;;;4.55;;
60169;SDS011;46042;49.444;6.862;2023-01-19T12:23:06;9.47;;;4.33;;
60169;SDS011;46042;49.444;6.862;2023-01-19T12:28:36;7.30;;;4.10;;
60169;SDS011;46042;49.444;6.862;2023-01-19T12:31:06;11.67;;;5.43;;
60169;SDS011;46042;49.444;6.862;2023-01-19T12:33:37;8.20;;;5.37;;
60169;SDS011;46042;49.444;6.862;2023-01-19T12:38:50;8.68;;;4.88;;
60169;SDS011;46042;49.444;6.862;2023-01-19T12:43:47;6.63;;;4.13;;
60169;SDS011;46042;49.444;6.862;2023-01-19T12:46:34;12.23;;;4.60;;
60169;SDS011;46042;49.444;6.862;2023-01-19T12:49:25;8.40;;;4.20;;
60169;SDS011;46042;49.444;6.862;2023-01-19T12:54:52;8.20;;;4.90;;
60169;SDS011;46042;49.444;6.862;2023-01-19T13:02:48;6.17;;;3.90;;
60169;SDS011;46042;49.444;6.862;2023-01-19T13:13:19;9.63;;;4.03;;
60169;SDS011;46042;49.444;6.862;2023-01-19T13:15:54;7.23;;;4.30;;
60169;SDS011;46042;49.444;6.862;2023-01-19T13:18:26;8.40;;;3.50;;
60169;SDS011;46042;49.444;6.862;2023-01-19T13:28:48;7.77;;;3.73;;
60169;SDS011;46042;49.444;6.862;2023-01-19T13:31:17;7.83;;;4.83;;
60169;SDS011;46042;49.444;6.862;2023-01-19T13:33:47;18.57;;;5.53;;
60169;SDS011;46042;49.444;6.862;2023-01-19T13:36:26;13.33;;;5.60;;
60169;SDS011;46042;49.444;6.862;2023-01-19T13:38:53;14.97;;;5.50;;
60169;SDS011;46042;49.444;6.862;2023-01-19T13:41:23;13.77;;;5.00;;
60169;SDS011;46042;49.444;6.862;2023-01-19T13:43:57;30.00;;;8.77;;
60169;SDS011;46042;49.444;6.862;2023-01-19T13:46:27;13.30;;;6.23;;
60169;SDS011;46042;49.444;6.862;2023-01-19T13:48:57;8.13;;;4.37;;
60169;SDS011;46042;49.444;6.862;2023-01-19T13:51:27;9.00;;;4.27;;
60169;SDS011;46042;49.444;6.862;2023-01-19T13:53:58;8.33;;;3.97;;
60169;SDS011;46042;49.444;6.862;2023-01-19T13:56:29;5.97;;;3.70;;
60169;SDS011;46042;49.444;6.862;2023-01-19T13:59:17;10.40;;;4.43;;
60169;SDS011;46042;49.444;6.862;2023-01-19T14:01:43;8.20;;;3.93;;
60169;SDS011;46042;49.444;6.862;2023-01-19T14:04:30;10.60;;;3.37;;
60169;SDS011;46042;49.444;6.862;2023-01-19T14:07:00;6.30;;;4.17;;
60169;SDS011;46042;49.444;6.862;2023-01-19T14:09:37;13.57;;;4.50;;
60169;SDS011;46042;49.444;6.862;2023-01-19T14:12:15;5.77;;;3.67;;
60169;SDS011;46042;49.444;6.862;2023-01-19T14:14:43;9.07;;;4.40;;
60169;SDS011;46042;49.444;6.862;2023-01-19T14:17:25;6.53;;;3.50;;
60169;SDS011;46042;49.444;6.862;2023-01-19T14:19:56;9.03;;;4.30;;
60169;SDS011;46042;49.444;6.862;2023-01-19T14:22:37;7.17;;;3.40;;
60169;SDS011;46042;49.444;6.862;2023-01-19T14:27:50;9.50;;;3.40;;
60169;SDS011;46042;49.444;6.862;2023-01-19T14:30:19;10.73;;;3.77;;
60169;SDS011;46042;49.444;6.862;2023-01-19T14:32:47;12.40;;;4.00;;
60169;SDS011;46042;49.444;6.862;2023-01-19T14:35:21;11.20;;;5.23;;
60169;SDS011;46042;49.444;6.862;2023-01-19T14:37:49;7.37;;;3.87;;
60169;SDS011;46042;49.444;6.862;2023-01-19T14:40:18;9.63;;;4.53;;
60169;SDS011;46042;49.444;6.862;2023-01-19T14:42:48;4.53;;;2.83;;
60169;SDS011;46042;49.444;6.862;2023-01-19T14:45:35;6.13;;;2.90;;
60169;SDS011;46042;49.444;6.862;2023-01-19T14:48:11;11.53;;;5.73;;
60169;SDS011;46042;49.444;6.862;2023-01-19T14:50:43;8.93;;;3.67;;
60169;SDS011;46042;49.444;6.862;2023-01-19T14:53:27;16.20;;;3.90;;
60169;SDS011;46042;49.444;6.862;2023-01-19T14:55:59;30.77;;;4.70;;
60169;SDS011;46042;49.444;6.862;2023-01-19T14:58:31;6.50;;;3.40;;
60169;SDS011;46042;49.444;6.862;2023-01-19T15:00:59;8.73;;;3.50;;
60169;SDS011;46042;49.444;6.862;2023-01-19T15:03:26;8.20;;;3.90;;
60169;SDS011;46042;49.444;6.862;2023-01-19T15:06:14;8.27;;;4.70;;
60169;SDS011;46042;49.444;6.862;2023-01-19T15:08:44;7.03;;;4.00;;
60169;SDS011;46042;49.444;6.862;2023-01-19T15:11:16;6.60;;;3.27;;
60169;SDS011;46042;49.444;6.862;2023-01-19T15:13:48;8.43;;;3.70;;
60169;SDS011;46042;49.444;6.862;2023-01-19T15:16:15;7.90;;;3.63;;
60169;SDS011;46042;49.444;6.862;2023-01-19T15:18:42;7.00;;;3.67;;
60169;SDS011;46042;49.444;6.862;2023-01-19T15:21:18;6.77;;;3.30;;
60169;SDS011;46042;49.444;6.862;2023-01-19T15:23:48;8.10;;;3.77;;
60169;SDS011;46042;49.444;6.862;2023-01-19T15:26:16;11.77;;;5.53;;
60169;SDS011;46042;49.444;6.862;2023-01-19T15:28:44;9.17;;;4.77;;
60169;SDS011;46042;49.444;6.862;2023-01-19T15:31:12;8.23;;;4.00;;
60169;SDS011;46042;49.444;6.862;2023-01-19T15:33:41;7.30;;;4.13;;
60169;SDS011;46042;49.444;6.862;2023-01-19T15:36:15;8.13;;;4.47;;
60169;SDS011;46042;49.444;6.862;2023-01-19T15:38:44;7.80;;;3.77;;
60169;SDS011;46042;49.444;6.862;2023-01-19T15:41:17;7.23;;;3.53;;
60169;SDS011;46042;49.444;6.862;2023-01-19T15:43:48;6.73;;;3.60;;
60169;SDS011;46042;49.444;6.862;2023-01-19T15:46:15;7.63;;;4.20;;
60169;SDS011;46042;49.444;6.862;2023-01-19T15:48:46;10.68;;;5.15;;
60169;SDS011;46042;49.444;6.862;2023-01-19T15:51:13;6.33;;;3.87;;
60169;SDS011;46042;49.444;6.862;2023-01-19T15:53:46;8.17;;;4.20;;
60169;SDS011;46042;49.444;6.862;2023-01-19T15:56:17;10.10;;;5.17;;
60169;SDS011;46042;49.444;6.862;2023-01-19T15:58:51;6.83;;;4.63;;
60169;SDS011;46042;49.444;6.862;2023-01-19T16:01:19;9.23;;;5.00;;
60169;SDS011;46042;49.444;6.862;2023-01-19T16:03:49;9.43;;;4.27;;
60169;SDS011;46042;49.444;6.862;2023-01-19T16:06:16;8.60;;;4.70;;
60169;SDS011;46042;49.444;6.862;2023-01-19T16:08:43;9.80;;;4.83;;
60169;SDS011;46042;49.444;6.862;2023-01-19T16:11:13;9.70;;;6.57;;
60169;SDS011;46042;49.444;6.862;2023-01-19T16:13:43;9.70;;;6.32;;
60169;SDS011;46042;49.444;6.862;2023-01-19T16:16:13;16.00;;;6.40;;
60169;SDS011;46042;49.444;6.862;2023-01-19T16:18:41;11.80;;;5.93;;
60169;SDS011;46042;49.444;6.862;2023-01-19T16:21:08;10.97;;;5.80;;
60169;SDS011;46042;49.444;6.862;2023-01-19T16:23:35;18.27;;;8.97;;
60169;SDS011;46042;49.444;6.862;2023-01-19T16:26:03;18.20;;;9.87;;
60169;SDS011;46042;49.444;6.862;2023-01-19T16:28:34;12.80;;;7.10;;
60169;SDS011;46042;49.444;6.862;2023-01-19T16:31:02;9.53;;;6.27;;